Vologda YK40 at St. Petersburg on Apr 9th 2021, runway excursion on landing

Last Update: April 13, 2021 / 17:41:48 GMT/Zulu time

Bookmark this article
Incident Facts

Date of incident
Apr 9, 2021

Classification
Incident

Flight number
VGV-5730T

Aircraft Registration
RA-87966

Aircraft Type
YAKOVLEV Yak-40

ICAO Type Designator
YK40

Airport ICAO Code
ULLI

A Vologda State Enterprises Yakovlev Yak-40, registration RA-87966 performing flight VGV-5730T from Vologda to St. Petersburg (Russia) with 6 crew, landed on St. Petersburg's runway 10R at about 21:02L (18:02Z) but veered right off the runway and came to a stop with all gear on soft ground. No injuries occurred, the aircraft received minor if any damage.

Russia's Northwest Transport Investigation Department (IAC) is investigating reporting according to preliminary data the aircraft rolled out of the runway due to a gust of wind in the evening of Apr 9th 2021.

On Apr 13th 2021 Rosaviatsia reported they are investigating the occurrence. The aircraft veered right off runway 10R about 900 meters/3000 feet past touchdown and came to a stop about 12 meters/40 feet to the right of the right runway edge. At the time of the landing the winds came from 170 degrees at 4 m/s (8 knots) gusting up to 11 m/s (21 knots).

Metars:
ULLI 091930Z 20010G17MPS 9999 -SHRA SCT030CB BKN043 04/M00 Q1008 WS R10L R10L/290050 NOSIG=
ULLI 091900Z 19008G13MPS 9999 -SHRA BKN025CB BKN040 04/M00 Q1008 R10L/290050 NOSIG=
ULLI 091830Z 19009MPS 9999 -SHRA SCT030CB BKN046 04/M00 Q1007 R10L/290050 NOSIG=
ULLI 091800Z 18006G13MPS 140V250 9999 -SHRA SCT026CB BKN040 04/00 Q1007 R10R/290050 NOSIG=
ULLI 091730Z 18006G13MPS 140V240 9999 -SHRA SCT020CB BKN040 04/00 Q1007 WS R10R R10R/290050 NOSIG=
ULLI 091700Z 18006MPS 120V250 9999 -SHRA SCT023CB BKN043 04/00 Q1007 R10R/290050 NOSIG=
ULLI 091630Z 18005G11MPS 130V240 9999 -SHRA SCT023CB BKN043 04/00 Q1007 R10R/290050 NOSIG=
ULLI 091600Z 17006G12MPS 9999 -SHRA SCT023CB BKN043 04/00 Q1007 WS R10R R10R/290050 NOSIG=
ULLI 091530Z 18004G09MPS 130V250 9999 -SHRA SCT023CB BKN043 05/00 Q1007 R10R/290050 NOSIG=
ULLI 091500Z 18009MPS 9999 FEW026CB SCT040 05/M00 Q1007 WS ALL RWY R88/190055 NOSIG=
Aircraft Registration Data New!
Registration mark
RA-87966
Country of Registration
Russia
Date of Registration
PhA effgbfgqb ne Subscribe to unlock
Certification Basis
Manufacturer
Aircraft Model / Type
Yak-40
ICAO Aircraft Type
YK40
Serial Number
Engine Count
Incident Facts

Date of incident
Apr 9, 2021

Classification
Incident

Flight number
VGV-5730T

Aircraft Registration
RA-87966

Aircraft Type
YAKOVLEV Yak-40

ICAO Type Designator
YK40

Airport ICAO Code
ULLI

This article is published under license from Avherald.com. © of text by Avherald.com.
Article source

You can read 4 more free articles without a subscription.

Subscribe now and continue reading without any limits!

Are you a subscriber?
Login
Subscribe

Read unlimited articles and receive our daily update briefing. Gain better insights into what is happening in commercial aviation safety.

Free newsletter

Want to know more and stay ahead? Get our free weekly newsletter and join 4933 existing subscribers.

By subscribing, you accept our terms and conditions and confirm that you've read our privacy policy.

Send tip

Support AeroInside by sending a small tip amount.

Newest articles

Subscribe today

Are you researching aviation incidents? Get access to AeroInside Insights, unlimited read access and receive the daily newsletter.

Pick your plan and subscribe

Partner

Blockaviation logo

A new way to document and demonstrate airworthiness compliance and aircraft value. Find out more.

Virtual Speech logo

ELITE Simulation Solutions is a leading global provider of Flight Simulation Training Devices, IFR training software as well as flight controls and related services. Find out more.

Get updates

Never miss an article from AeroInside. Subscribe to our free weekly newsletter and join 4933 existing subscribers.

By subscribing, you accept our terms and conditions and that you've read our privacy policy.

AeroInside Blog
Popular aircraft
Airbus A320
Boeing 737-800
Boeing 737-800 MAX
Popular airlines
American Airlines
United
Delta
Air Canada
Lufthansa
British Airways